createdAt,value
2022-12-01T00:00:47.558Z,67.50
2022-12-01T00:01:47.719Z,67.40
2022-12-01T00:02:47.553Z,68.70
2022-12-01T00:03:47.450Z,67.00
2022-12-01T00:04:47.410Z,70.30
2022-12-01T00:05:47.415Z,72.60
2022-12-01T00:06:47.427Z,67.10
2022-12-01T00:07:47.436Z,65.70
2022-12-01T00:08:47.364Z,66.80
2022-12-01T00:09:47.690Z,70.40
2022-12-01T00:10:47.340Z,66.70
2022-12-01T00:11:47.391Z,69.20
2022-12-01T00:12:47.335Z,74.00
2022-12-01T00:13:47.305Z,64.10
2022-12-01T00:14:47.301Z,66.60
2022-12-01T00:15:47.286Z,63.70
2022-12-01T00:16:47.384Z,62.70
2022-12-01T00:17:47.259Z,65.50
2022-12-01T00:18:47.255Z,62.70
2022-12-01T00:19:47.661Z,56.20
2022-12-01T00:20:47.236Z,56.40
2022-12-01T00:21:47.216Z,60.50
2022-12-01T00:22:47.225Z,59.10
2022-12-01T00:23:47.205Z,56.80
2022-12-01T00:24:47.183Z,59.10
2022-12-01T00:25:47.177Z,64.70
2022-12-01T00:26:47.165Z,57.80
2022-12-01T00:27:47.175Z,60.20
2022-12-01T00:28:47.156Z,64.80
2022-12-01T00:29:47.410Z,62.10
2022-12-01T00:30:47.116Z,64.30
2022-12-01T00:31:47.141Z,65.40
2022-12-01T00:32:47.100Z,64.90
2022-12-01T00:33:47.100Z,64.70
2022-12-01T00:34:47.077Z,64.70
2022-12-01T00:35:47.083Z,61.60
2022-12-01T00:36:47.049Z,63.00
2022-12-01T00:37:47.039Z,68.10
2022-12-01T00:38:47.058Z,64.00
2022-12-01T00:39:47.296Z,64.60
2022-12-01T00:40:47.006Z,68.90
2022-12-01T00:41:46.997Z,64.70
2022-12-01T00:42:46.987Z,63.50
2022-12-01T00:43:47.054Z,66.10
2022-12-01T00:44:46.962Z,65.20
2022-12-01T00:45:47.006Z,66.30
2022-12-01T00:46:46.937Z,70.20
2022-12-01T00:47:46.940Z,61.80
2022-12-01T00:48:47.112Z,66.60
2022-12-01T00:49:47.284Z,64.10
2022-12-01T00:50:46.901Z,65.40
2022-12-01T00:51:46.898Z,65.20
2022-12-01T00:52:46.875Z,59.70
2022-12-01T00:53:46.859Z,67.80
2022-12-01T00:54:46.874Z,67.40
2022-12-01T00:55:46.840Z,66.60
2022-12-01T00:56:46.832Z,68.40
2022-12-01T00:57:46.818Z,63.50
2022-12-01T00:58:46.824Z,66.50
2022-12-01T00:59:47.137Z,62.00
2022-12-01T01:00:46.783Z,64.90
2022-12-01T01:01:46.886Z,65.50
2022-12-01T01:02:46.828Z,62.90
2022-12-01T01:03:46.779Z,70.70
2022-12-01T01:04:46.736Z,64.10
2022-12-01T01:05:46.728Z,66.90
2022-12-01T01:06:46.716Z,66.30
2022-12-01T01:07:46.800Z,67.30
2022-12-01T01:08:46.704Z,61.60
2022-12-01T01:09:46.982Z,57.80
2022-12-01T01:10:46.671Z,64.20
2022-12-01T01:11:46.670Z,66.60
2022-12-01T01:12:46.650Z,67.50
2022-12-01T01:13:46.651Z,56.40
2022-12-01T01:14:46.646Z,62.90
2022-12-01T01:15:46.626Z,61.10
2022-12-01T01:16:46.654Z,63.50
2022-12-01T01:17:46.602Z,62.70
2022-12-01T01:18:46.588Z,68.90
2022-12-01T01:19:47.006Z,60.40
2022-12-01T01:20:46.600Z,62.10
2022-12-01T01:21:46.549Z,61.90
2022-12-01T01:22:46.536Z,61.60
2022-12-01T01:23:46.573Z,64.80
2022-12-01T01:24:46.551Z,63.00
2022-12-01T01:25:46.507Z,58.00
2022-12-01T01:26:46.527Z,60.70
2022-12-01T01:27:46.487Z,57.30
2022-12-01T01:28:46.495Z,55.90
2022-12-01T01:29:46.755Z,58.20
2022-12-01T01:30:46.502Z,60.50
2022-12-01T01:31:46.460Z,61.30
2022-12-01T01:32:46.454Z,61.50
2022-12-01T01:33:46.419Z,61.30
2022-12-01T01:34:46.409Z,59.30
2022-12-01T01:35:46.513Z,60.30
2022-12-01T01:36:46.405Z,60.40
2022-12-01T01:37:46.370Z,63.70
2022-12-01T01:38:46.357Z,62.70
2022-12-01T01:39:46.572Z,57.30
2022-12-01T01:40:46.341Z,56.70
2022-12-01T01:41:46.356Z,54.60
2022-12-01T01:42:46.317Z,56.40
2022-12-01T01:43:46.308Z,54.50
2022-12-01T01:44:46.294Z,56.80
2022-12-01T01:45:46.379Z,53.70
2022-12-01T01:46:46.267Z,55.70
2022-12-01T01:47:46.285Z,56.50
2022-12-01T01:48:46.255Z,54.60
2022-12-01T01:49:46.608Z,52.70
2022-12-01T01:50:46.234Z,55.70
2022-12-01T01:51:46.225Z,58.90
2022-12-01T01:52:46.299Z,59.60
2022-12-01T01:53:46.309Z,55.10
2022-12-01T01:54:46.180Z,57.90
2022-12-01T01:55:46.186Z,56.30
2022-12-01T01:56:46.164Z,56.60
2022-12-01T01:57:46.153Z,56.10
2022-12-01T01:58:46.157Z,57.80
2022-12-01T01:59:46.480Z,53.70
2022-12-01T02:00:46.140Z,54.10
2022-12-01T02:01:46.171Z,52.30
2022-12-01T02:02:46.256Z,56.90
2022-12-01T02:03:46.086Z,55.00
2022-12-01T02:04:46.074Z,54.30
2022-12-01T02:05:46.077Z,61.40
2022-12-01T02:06:46.048Z,59.70
2022-12-01T02:07:46.170Z,58.20
2022-12-01T02:08:46.027Z,63.60
2022-12-01T02:09:46.188Z,53.10
2022-12-01T02:10:46.027Z,52.70
2022-12-01T02:11:46.018Z,56.00
2022-12-01T02:12:45.981Z,55.10
2022-12-01T02:13:45.969Z,52.70
2022-12-01T02:14:45.966Z,55.30
2022-12-01T02:15:45.977Z,51.20
2022-12-01T02:16:46.020Z,53.20
2022-12-01T02:17:45.986Z,50.90
2022-12-01T02:18:46.021Z,51.80
2022-12-01T02:19:46.142Z,53.80
2022-12-01T02:20:45.891Z,47.70
2022-12-01T02:21:45.881Z,51.90
2022-12-01T02:22:50.723Z,49.10
2022-12-01T02:23:46.902Z,50.50
2022-12-01T02:24:45.853Z,49.60
2022-12-01T02:25:45.864Z,48.60
2022-12-01T02:26:45.823Z,49.30
2022-12-01T02:27:45.833Z,47.40
2022-12-01T02:28:45.826Z,53.20
2022-12-01T02:29:45.894Z,46.00
2022-12-01T02:30:45.858Z,47.80
2022-12-01T02:31:45.813Z,51.70
2022-12-01T02:32:45.790Z,47.60
2022-12-01T02:33:45.769Z,48.10
2022-12-01T02:34:45.746Z,44.90
2022-12-01T02:35:45.726Z,45.20
2022-12-01T02:36:45.712Z,46.30
2022-12-01T02:37:45.750Z,47.40
2022-12-01T02:38:45.755Z,45.80
2022-12-01T02:39:45.839Z,45.10
2022-12-01T02:40:53.742Z,46.20
2022-12-01T02:41:45.658Z,46.20
2022-12-01T02:42:45.668Z,46.10
2022-12-01T02:43:45.654Z,45.80
2022-12-01T02:44:45.631Z,46.50
2022-12-01T02:45:45.690Z,47.90
2022-12-01T02:46:45.599Z,45.00
2022-12-01T02:47:45.610Z,47.70
2022-12-01T02:48:45.580Z,43.60
2022-12-01T02:49:45.675Z,45.20
2022-12-01T02:50:45.560Z,46.00
2022-12-01T02:51:45.571Z,49.40
2022-12-01T02:52:45.533Z,46.00
2022-12-01T02:53:45.540Z,43.30
2022-12-01T02:54:45.534Z,43.40
2022-12-01T02:55:45.527Z,42.60
2022-12-01T02:56:45.488Z,44.70
2022-12-01T02:57:45.482Z,41.40
2022-12-01T02:58:45.487Z,40.30
2022-12-01T02:59:45.604Z,40.70
2022-12-01T03:00:45.449Z,42.10
2022-12-01T03:01:45.463Z,41.10
2022-12-01T03:02:45.480Z,41.00
2022-12-01T03:03:45.413Z,39.70
2022-12-01T03:04:45.420Z,38.00
2022-12-01T03:05:45.409Z,36.40
2022-12-01T03:06:45.376Z,34.20
2022-12-01T03:07:45.422Z,37.20
2022-12-01T03:08:45.376Z,37.30
2022-12-01T03:09:45.345Z,38.70
2022-12-01T03:10:45.357Z,37.60
2022-12-01T03:11:45.325Z,37.20
2022-12-01T03:12:45.311Z,36.30
2022-12-01T03:13:45.329Z,34.70
2022-12-01T03:14:45.313Z,34.00
2022-12-01T03:15:45.356Z,34.60
2022-12-01T03:16:45.273Z,34.70
2022-12-01T03:17:45.265Z,36.20
2022-12-01T03:18:45.271Z,33.50
2022-12-01T03:19:45.362Z,34.50
2022-12-01T03:20:45.251Z,36.30
2022-12-01T03:21:45.210Z,36.80
2022-12-01T03:22:45.204Z,32.30
2022-12-01T03:23:45.204Z,35.10
2022-12-01T03:24:45.179Z,33.90
2022-12-01T03:25:45.188Z,34.40
2022-12-01T03:26:45.157Z,34.40
2022-12-01T03:28:13.429Z,34.70
2022-12-01T03:28:46.148Z,28.40
2022-12-01T03:29:45.126Z,29.20
2022-12-01T03:30:45.143Z,29.80
2022-12-01T03:31:45.202Z,29.30
2022-12-01T03:32:45.090Z,29.20
2022-12-01T03:33:45.098Z,30.00
2022-12-01T03:34:45.067Z,31.80
2022-12-01T03:35:45.059Z,33.00
2022-12-01T03:36:45.065Z,30.20
2022-12-01T03:37:45.043Z,30.30
2022-12-01T03:38:45.028Z,27.10
2022-12-01T03:39:45.035Z,27.20
2022-12-01T03:40:45.022Z,28.70
2022-12-01T03:41:45.001Z,29.30
2022-12-01T03:42:44.990Z,30.80
2022-12-01T03:43:44.983Z,27.00
2022-12-01T03:44:44.957Z,27.70
2022-12-01T03:45:44.955Z,26.90
2022-12-01T03:46:45.027Z,28.60
2022-12-01T03:47:44.976Z,30.60
2022-12-01T03:48:44.916Z,31.20
2022-12-01T03:49:44.922Z,27.60
2022-12-01T03:50:44.897Z,28.20
2022-12-01T03:51:44.886Z,27.00
2022-12-01T03:52:44.873Z,30.70
2022-12-01T03:53:44.859Z,26.30
2022-12-01T03:54:44.905Z,29.50
2022-12-01T03:55:44.842Z,29.30
2022-12-01T03:56:44.826Z,27.20
2022-12-01T03:57:44.839Z,29.50
2022-12-01T03:58:44.803Z,30.00
2022-12-01T03:59:44.800Z,27.00
2022-12-01T04:00:44.781Z,27.20
2022-12-01T04:01:44.835Z,27.80
2022-12-01T04:02:44.888Z,30.40
2022-12-01T04:03:44.790Z,27.30
2022-12-01T04:04:44.749Z,27.50
2022-12-01T04:05:44.737Z,29.10
2022-12-01T04:06:44.776Z,29.80
2022-12-01T04:07:44.798Z,26.50
2022-12-01T04:08:44.700Z,28.30
2022-12-01T04:09:44.695Z,28.10
2022-12-01T04:10:44.713Z,29.40
2022-12-01T04:11:44.745Z,27.40
2022-12-01T04:12:44.659Z,25.80
2022-12-01T04:13:44.649Z,27.80
2022-12-01T04:14:44.639Z,26.20
2022-12-01T04:15:44.679Z,25.30
2022-12-01T04:16:44.609Z,25.00
2022-12-01T04:17:44.617Z,24.50
2022-12-01T04:18:44.583Z,24.60
2022-12-01T04:19:44.622Z,23.50
2022-12-01T04:20:44.569Z,23.50
2022-12-01T04:21:44.551Z,25.40
2022-12-01T04:22:44.562Z,24.90
2022-12-01T04:23:44.557Z,26.80
2022-12-01T04:24:44.526Z,26.00
2022-12-01T04:25:44.511Z,25.40
2022-12-01T04:26:44.505Z,27.60
2022-12-01T04:27:44.494Z,25.80
2022-12-01T04:28:44.497Z,25.60
2022-12-01T04:29:44.464Z,24.00
2022-12-01T04:30:44.452Z,23.80
2022-12-01T04:31:44.577Z,25.10
2022-12-01T04:32:44.437Z,25.20
2022-12-01T04:33:44.443Z,26.10
2022-12-01T04:34:44.425Z,25.30
2022-12-01T04:35:44.418Z,25.00
2022-12-01T04:36:44.384Z,24.10
2022-12-01T04:37:44.378Z,24.70
2022-12-01T04:38:44.364Z,25.50
2022-12-01T04:39:44.381Z,26.60
2022-12-01T04:40:44.359Z,26.90
2022-12-01T04:41:44.339Z,24.10
2022-12-01T04:42:44.323Z,24.40
2022-12-01T04:43:44.317Z,23.40
2022-12-01T04:44:44.324Z,25.70
2022-12-01T04:45:44.291Z,25.40
2022-12-01T04:46:44.327Z,25.20
2022-12-01T04:47:44.269Z,27.10
2022-12-01T04:48:44.254Z,27.30
2022-12-01T04:49:44.257Z,26.00
2022-12-01T04:50:44.235Z,24.80
2022-12-01T04:51:44.268Z,26.10
2022-12-01T04:52:44.222Z,27.60
2022-12-01T04:53:44.208Z,26.10
2022-12-01T04:54:44.187Z,27.80
2022-12-01T04:55:44.191Z,27.30
2022-12-01T04:56:44.197Z,24.60
2022-12-01T04:57:44.159Z,28.70
2022-12-01T04:58:44.149Z,27.50
2022-12-01T04:59:44.166Z,26.50
2022-12-01T05:00:44.185Z,27.10
2022-12-01T05:01:44.200Z,27.10
2022-12-01T05:02:44.106Z,27.40
2022-12-01T05:03:44.092Z,27.00
2022-12-01T05:04:44.089Z,30.30
2022-12-01T05:05:44.068Z,27.60
2022-12-01T05:06:44.082Z,28.60
2022-12-01T05:07:44.174Z,28.00
2022-12-01T05:08:44.074Z,27.00
2022-12-01T05:09:44.040Z,29.00
2022-12-01T05:10:44.016Z,28.70
2022-12-01T05:11:44.027Z,28.30
2022-12-01T05:12:44.000Z,28.30
2022-12-01T05:13:43.984Z,28.40
2022-12-01T05:14:43.984Z,30.00
2022-12-01T05:15:43.983Z,28.00
2022-12-01T05:16:44.051Z,28.60
2022-12-01T05:17:43.960Z,27.70
2022-12-01T05:18:44.012Z,28.20
2022-12-01T05:19:43.914Z,26.80
2022-12-01T05:20:43.924Z,28.60
2022-12-01T05:21:43.916Z,29.50
2022-12-01T05:23:04.877Z,30.30
2022-12-01T05:23:44.889Z,28.30
2022-12-01T05:24:43.865Z,30.30
2022-12-01T05:25:43.872Z,29.20
2022-12-01T05:26:43.841Z,29.80
2022-12-01T05:27:43.857Z,29.80
2022-12-01T05:28:43.835Z,33.20
2022-12-01T05:29:43.806Z,29.80
2022-12-01T05:30:43.794Z,28.30
2022-12-01T05:31:43.889Z,33.30
2022-12-01T05:32:43.802Z,29.40
2022-12-01T05:33:43.758Z,27.70
2022-12-01T05:34:43.748Z,29.30
2022-12-01T05:35:43.735Z,30.50
2022-12-01T05:36:43.729Z,28.90
2022-12-01T05:37:43.735Z,27.30
2022-12-01T05:38:43.713Z,28.00
2022-12-01T05:39:43.734Z,32.70
2022-12-01T05:40:43.700Z,28.00
2022-12-01T05:41:43.680Z,29.80
2022-12-01T05:42:43.669Z,30.50
2022-12-01T05:43:43.649Z,29.60
2022-12-01T05:44:43.668Z,30.60
2022-12-01T05:45:43.725Z,30.40
2022-12-01T05:46:43.623Z,27.40
2022-12-01T05:47:43.627Z,28.30
2022-12-01T05:48:43.600Z,29.90
2022-12-01T05:49:43.615Z,30.30
2022-12-01T05:50:43.604Z,30.60
2022-12-01T05:51:43.564Z,29.10
2022-12-01T05:52:43.562Z,31.80
2022-12-01T05:53:43.554Z,32.10
2022-12-01T05:54:43.527Z,30.00
2022-12-01T05:55:43.560Z,29.10
2022-12-01T05:56:43.541Z,29.60
2022-12-01T05:57:43.499Z,29.10
2022-12-01T05:58:43.485Z,31.60
2022-12-01T05:59:43.478Z,28.90
2022-12-01T06:00:45.934Z,31.40
2022-12-01T06:01:43.589Z,31.00
2022-12-01T06:02:43.447Z,29.40
2022-12-01T06:03:43.455Z,29.00
2022-12-01T06:04:43.486Z,29.60
2022-12-01T06:05:43.434Z,31.60
2022-12-01T06:06:43.403Z,33.20
2022-12-01T06:07:43.453Z,31.20
2022-12-01T06:08:43.410Z,30.20
2022-12-01T06:09:43.383Z,31.50
2022-12-01T06:10:43.374Z,31.50
2022-12-01T06:11:43.384Z,30.80
2022-12-01T06:12:43.342Z,32.70
2022-12-01T06:13:43.324Z,33.40
2022-12-01T06:14:43.323Z,31.60
2022-12-01T06:15:43.298Z,30.80
2022-12-01T06:16:43.324Z,32.00
2022-12-01T06:17:43.276Z,33.00
2022-12-01T06:18:43.266Z,31.30
2022-12-01T06:19:43.535Z,33.10
2022-12-01T06:20:43.267Z,31.00
2022-12-01T06:21:43.232Z,32.50
2022-12-01T06:22:43.240Z,33.80
2022-12-01T06:23:43.231Z,31.50
2022-12-01T06:24:43.204Z,30.40
2022-12-01T06:25:43.216Z,31.00
2022-12-01T06:26:43.171Z,29.90
2022-12-01T06:27:43.231Z,29.20
2022-12-01T06:28:43.159Z,30.30
2022-12-01T06:29:43.162Z,33.00
2022-12-01T06:30:43.521Z,29.50
2022-12-01T06:31:43.175Z,30.80
2022-12-01T06:32:43.246Z,30.50
2022-12-01T06:33:43.106Z,29.90
2022-12-01T06:34:43.092Z,31.40
2022-12-01T06:35:43.094Z,30.40
2022-12-01T06:36:43.067Z,30.50
2022-12-01T06:37:43.053Z,34.00
2022-12-01T06:38:43.069Z,32.10
2022-12-01T06:39:43.042Z,32.40
2022-12-01T06:40:43.026Z,34.50
2022-12-01T06:41:43.020Z,33.50
2022-12-01T06:42:43.001Z,33.20
2022-12-01T06:43:43.031Z,33.40
2022-12-01T06:44:43.006Z,36.00
2022-12-01T06:45:43.022Z,32.50
2022-12-01T06:46:42.961Z,33.20
2022-12-01T06:47:42.953Z,36.00
2022-12-01T06:48:42.933Z,33.90
2022-12-01T06:49:42.939Z,33.20
2022-12-01T06:50:42.926Z,34.10
2022-12-01T06:51:42.904Z,32.70
2022-12-01T06:52:42.888Z,35.00
2022-12-01T06:53:42.892Z,31.80
2022-12-01T06:54:42.887Z,33.50
2022-12-01T06:55:42.855Z,32.60
2022-12-01T06:56:42.873Z,34.60
2022-12-01T06:57:42.857Z,30.30
2022-12-01T06:58:42.837Z,33.00
2022-12-01T06:59:42.828Z,34.80
2022-12-01T07:00:45.382Z,32.90
2022-12-01T07:01:43.844Z,36.60
2022-12-01T07:02:42.890Z,32.80
2022-12-01T07:03:42.768Z,35.40
2022-12-01T07:04:42.762Z,32.20
2022-12-01T07:05:42.786Z,32.90
2022-12-01T07:06:42.741Z,35.20
2022-12-01T07:07:42.792Z,32.20
2022-12-01T07:08:42.717Z,34.10
2022-12-01T07:09:42.704Z,35.90
2022-12-01T07:10:42.713Z,35.50
2022-12-01T07:11:42.706Z,37.50
2022-12-01T07:12:42.671Z,34.20
2022-12-01T07:13:42.659Z,37.70
2022-12-01T07:14:42.655Z,35.00
2022-12-01T07:15:43.423Z,35.10
2022-12-01T07:16:42.692Z,37.20
2022-12-01T07:17:42.616Z,33.90
2022-12-01T07:18:42.624Z,33.30
2022-12-01T07:19:42.595Z,32.50
2022-12-01T07:20:42.601Z,32.60
2022-12-01T07:21:42.578Z,32.80
2022-12-01T07:22:42.561Z,33.40
2022-12-01T07:23:42.543Z,34.70
2022-12-01T07:24:42.589Z,38.10
2022-12-01T07:25:42.532Z,37.00
2022-12-01T07:26:42.524Z,37.40
2022-12-01T07:27:42.511Z,36.60
2022-12-01T07:28:42.497Z,35.60
2022-12-01T07:29:42.484Z,36.70
2022-12-01T07:30:42.576Z,34.40
2022-12-01T07:31:42.476Z,33.80
2022-12-01T07:32:42.473Z,35.30
2022-12-01T07:33:42.465Z,36.50
2022-12-01T07:34:42.430Z,36.40
2022-12-01T07:35:42.436Z,36.90
2022-12-01T07:36:42.402Z,37.60
2022-12-01T07:37:42.420Z,36.70
2022-12-01T07:38:42.379Z,36.50
2022-12-01T07:39:42.372Z,36.60
2022-12-01T07:40:42.358Z,36.80
2022-12-01T07:41:42.352Z,36.80
2022-12-01T07:42:42.344Z,37.70
2022-12-01T07:43:42.378Z,38.70
2022-12-01T07:44:42.347Z,37.00
2022-12-01T07:45:42.375Z,39.00
2022-12-01T07:46:42.358Z,36.40
2022-12-01T07:47:42.307Z,35.80
2022-12-01T07:48:42.294Z,41.30
2022-12-01T07:49:42.285Z,36.80
2022-12-01T07:50:42.252Z,37.70
2022-12-01T07:51:42.264Z,38.90
2022-12-01T07:52:42.227Z,37.60
2022-12-01T07:53:42.221Z,34.40
2022-12-01T07:54:42.205Z,35.80
2022-12-01T07:55:42.206Z,38.20
2022-12-01T07:56:42.215Z,37.40
2022-12-01T07:57:42.172Z,35.10
2022-12-01T07:58:42.227Z,38.00
2022-12-01T07:59:42.153Z,35.80
2022-12-01T08:00:42.140Z,35.00
2022-12-01T08:01:44.705Z,35.10
2022-12-01T08:02:42.160Z,39.60
2022-12-01T08:03:42.128Z,38.00
2022-12-01T08:04:42.094Z,36.50
2022-12-01T08:05:42.091Z,39.70
2022-12-01T08:06:42.095Z,33.20
2022-12-01T08:07:42.257Z,35.10
2022-12-01T08:08:42.073Z,37.00
2022-12-01T08:09:42.048Z,35.40
2022-12-01T08:10:42.037Z,35.40
2022-12-01T08:11:42.035Z,32.60
2022-12-01T08:12:42.014Z,34.80
2022-12-01T08:13:42.008Z,33.00
2022-12-01T08:14:41.990Z,35.50
2022-12-01T08:15:42.787Z,32.50
2022-12-01T08:16:42.005Z,32.90
2022-12-01T08:17:41.980Z,33.60
2022-12-01T08:18:41.948Z,36.20
2022-12-01T08:19:41.950Z,33.80
2022-12-01T08:20:41.926Z,32.90
2022-12-01T08:21:41.944Z,35.00
2022-12-01T08:22:41.901Z,32.40
2022-12-01T08:23:41.896Z,34.40
2022-12-01T08:24:41.882Z,34.10
2022-12-01T08:25:41.874Z,34.10
2022-12-01T08:26:41.854Z,36.00
2022-12-01T08:27:41.868Z,35.80
2022-12-01T08:28:41.854Z,35.50
2022-12-01T08:29:41.817Z,34.20
2022-12-01T08:30:41.893Z,34.50
2022-12-01T08:31:41.888Z,35.10
2022-12-01T08:32:41.793Z,32.20
2022-12-01T08:33:41.777Z,33.20
2022-12-01T08:34:41.768Z,33.10
2022-12-01T08:35:41.803Z,32.00
2022-12-01T08:36:41.761Z,31.60
2022-12-01T08:37:41.740Z,33.80
2022-12-01T08:38:41.721Z,35.30
2022-12-01T08:39:41.728Z,32.30
2022-12-01T08:40:41.704Z,34.50
2022-12-01T08:41:41.707Z,33.50
2022-12-01T08:42:41.689Z,34.40
2022-12-01T08:43:57.263Z,34.70
2022-12-01T08:44:42.690Z,32.30
2022-12-01T08:45:41.642Z,35.90
2022-12-01T08:46:41.679Z,30.00
2022-12-01T08:47:41.626Z,29.00
2022-12-01T08:48:41.626Z,33.10
2022-12-01T08:49:41.601Z,31.60
2022-12-01T08:50:41.588Z,31.50
2022-12-01T08:51:41.620Z,34.10
2022-12-01T08:52:41.566Z,33.10
2022-12-01T08:53:45.460Z,30.60
2022-12-01T08:54:41.563Z,29.10
2022-12-01T08:55:41.532Z,32.60
2022-12-01T08:56:41.523Z,29.80
2022-12-01T08:57:41.512Z,32.00
2022-12-01T08:58:41.526Z,34.40
2022-12-01T08:59:41.501Z,33.80
2022-12-01T09:00:41.500Z,31.40
2022-12-01T09:01:41.513Z,31.40
2022-12-01T09:02:49.568Z,30.60
2022-12-01T09:03:41.516Z,29.80
2022-12-01T09:04:41.604Z,31.20
2022-12-01T09:05:41.442Z,30.60
2022-12-01T09:06:41.415Z,30.30
2022-12-01T09:07:41.443Z,34.10
2022-12-01T09:08:41.390Z,31.10
2022-12-01T09:09:41.382Z,31.80
2022-12-01T09:10:41.403Z,31.50
2022-12-01T09:11:41.359Z,28.30
2022-12-01T09:12:41.349Z,29.30
2022-12-01T09:13:41.332Z,30.40
2022-12-01T09:14:41.331Z,28.20
2022-12-01T09:15:41.336Z,28.70
2022-12-01T09:16:41.348Z,30.40
2022-12-01T09:17:41.309Z,29.40
2022-12-01T09:18:41.279Z,29.30
2022-12-01T09:19:41.292Z,30.30
2022-12-01T09:20:41.273Z,28.80
2022-12-01T09:21:41.269Z,28.70
2022-12-01T09:22:41.246Z,25.50
2022-12-01T09:23:41.240Z,27.10
2022-12-01T09:24:41.214Z,28.20
2022-12-01T09:25:41.217Z,31.20
2022-12-01T09:26:41.214Z,26.10
2022-12-01T09:27:41.191Z,29.40
2022-12-01T09:28:41.186Z,29.00
2022-12-01T09:29:41.165Z,29.70
2022-12-01T09:30:41.180Z,29.90
2022-12-01T09:31:41.248Z,32.10
2022-12-01T09:32:41.134Z,27.90
2022-12-01T09:33:41.120Z,29.10
2022-12-01T09:34:41.103Z,29.10
2022-12-01T09:35:41.123Z,26.60
2022-12-01T09:36:41.103Z,29.00
2022-12-01T09:37:41.086Z,29.80
2022-12-01T09:38:41.083Z,28.60
2022-12-01T09:39:41.111Z,26.80
2022-12-01T09:40:41.040Z,26.90
2022-12-01T09:41:41.120Z,26.80
2022-12-01T09:42:41.016Z,26.90
2022-12-01T09:43:41.010Z,27.10
2022-12-01T09:44:41.000Z,26.70
2022-12-01T09:45:40.985Z,28.20
2022-12-01T09:46:41.049Z,24.90
2022-12-01T09:47:40.995Z,26.10
2022-12-01T09:48:40.955Z,26.70
2022-12-01T09:49:40.955Z,25.40
2022-12-01T09:50:40.939Z,27.40
2022-12-01T09:51:40.938Z,25.90
2022-12-01T09:52:40.958Z,26.80
2022-12-01T09:53:40.891Z,26.30
2022-12-01T09:54:40.909Z,26.50
2022-12-01T09:55:40.899Z,29.10
2022-12-01T09:56:40.865Z,27.70
2022-12-01T09:57:40.872Z,29.50
2022-12-01T09:58:40.840Z,24.80
2022-12-01T09:59:40.829Z,26.30
2022-12-01T10:00:40.882Z,24.90
2022-12-01T10:01:40.864Z,28.00
2022-12-01T10:02:40.806Z,24.10
2022-12-01T10:03:40.783Z,25.90
2022-12-01T10:04:40.775Z,28.70
2022-12-01T10:06:02.962Z,25.50
2022-12-01T10:06:41.783Z,28.80
2022-12-01T10:07:40.757Z,28.70
2022-12-01T10:08:40.742Z,25.70
2022-12-01T10:09:40.718Z,30.20
2022-12-01T10:10:40.752Z,28.20
2022-12-01T10:11:40.715Z,25.90
2022-12-01T10:12:40.758Z,27.70
2022-12-01T10:13:43.743Z,28.40
2022-12-01T10:14:40.671Z,28.00
2022-12-01T10:15:40.650Z,26.30
2022-12-01T10:16:40.701Z,25.50
2022-12-01T10:17:40.662Z,24.90
2022-12-01T10:18:40.632Z,26.00
2022-12-01T10:19:40.616Z,27.10
2022-12-01T10:20:40.615Z,27.20
2022-12-01T10:21:40.611Z,26.60
2022-12-01T10:22:40.597Z,28.50
2022-12-01T10:23:40.571Z,29.30
2022-12-01T10:24:40.556Z,27.40
2022-12-01T10:25:40.539Z,25.80
2022-12-01T10:26:40.545Z,26.80
2022-12-01T10:27:40.568Z,25.00
2022-12-01T10:28:40.510Z,25.90
2022-12-01T10:29:44.975Z,27.00
2022-12-01T10:30:41.491Z,23.70
2022-12-01T10:31:40.582Z,25.00
2022-12-01T10:32:40.465Z,24.20
2022-12-01T10:33:40.450Z,25.00
2022-12-01T10:34:40.445Z,25.70
2022-12-01T10:35:40.430Z,24.10
2022-12-01T10:36:40.448Z,26.40
2022-12-01T10:37:40.479Z,25.80
2022-12-01T10:38:40.396Z,26.80
2022-12-01T10:39:40.389Z,23.80
2022-12-01T10:40:40.374Z,23.70
2022-12-01T10:41:40.358Z,22.10
2022-12-01T10:42:40.397Z,21.40
2022-12-01T10:43:40.366Z,23.60
2022-12-01T10:44:40.327Z,23.60
2022-12-01T10:45:40.386Z,26.00
2022-12-01T10:46:40.318Z,25.30
2022-12-01T10:47:40.297Z,24.80
2022-12-01T10:48:40.304Z,25.70
2022-12-01T10:49:40.272Z,25.80
2022-12-01T10:50:40.265Z,24.10
2022-12-01T10:51:40.281Z,24.00
2022-12-01T10:52:40.256Z,24.70
2022-12-01T10:53:40.237Z,28.40
2022-12-01T10:54:40.229Z,23.70
2022-12-01T10:55:46.368Z,24.30
2022-12-01T10:56:40.190Z,25.30
2022-12-01T10:57:40.262Z,25.10
2022-12-01T10:58:40.204Z,25.30
2022-12-01T10:59:40.193Z,21.80
2022-12-01T11:01:41.263Z,25.00
2022-12-01T11:02:40.387Z,24.50
2022-12-01T11:03:40.243Z,25.80
2022-12-01T11:04:40.104Z,23.80
2022-12-01T11:05:40.097Z,24.30
2022-12-01T11:06:40.087Z,24.30
2022-12-01T11:07:40.121Z,24.30
2022-12-01T11:08:40.076Z,23.10
2022-12-01T11:09:40.075Z,24.90
2022-12-01T11:10:40.041Z,24.60
2022-12-01T11:11:40.038Z,24.80
2022-12-01T11:12:40.019Z,22.80
2022-12-01T11:13:40.032Z,24.90
2022-12-01T11:14:40.002Z,26.70
2022-12-01T11:15:40.024Z,25.20
2022-12-01T11:16:40.103Z,26.50
2022-12-01T11:17:39.983Z,27.40
2022-12-01T11:18:40.038Z,26.90
2022-12-01T11:19:40.087Z,26.10
2022-12-01T11:20:39.980Z,24.80
2022-12-01T11:21:39.927Z,26.50
2022-12-01T11:22:39.911Z,22.80
2022-12-01T11:23:39.907Z,25.00
2022-12-01T11:24:39.908Z,26.00
2022-12-01T11:25:39.878Z,27.10
2022-12-01T11:26:39.870Z,23.50
2022-12-01T11:27:39.881Z,23.50
2022-12-01T11:28:39.848Z,23.70
2022-12-01T11:29:39.834Z,24.50
2022-12-01T11:30:39.819Z,23.90
2022-12-01T11:31:39.891Z,26.60
2022-12-01T11:32:39.798Z,26.60
2022-12-01T11:33:39.808Z,26.50
2022-12-01T11:34:39.791Z,24.10
2022-12-01T11:35:39.766Z,24.30
2022-12-01T11:36:39.747Z,24.40
2022-12-01T11:37:39.766Z,27.30
2022-12-01T11:38:39.729Z,22.90
2022-12-01T11:39:39.723Z,26.30
2022-12-01T11:40:39.737Z,23.40
2022-12-01T11:41:39.701Z,24.50
2022-12-01T11:42:39.683Z,23.50
2022-12-01T11:43:43.722Z,23.00
2022-12-01T11:44:51.490Z,22.90
2022-12-01T11:45:40.789Z,22.70
2022-12-01T11:46:46.265Z,24.30
2022-12-01T11:47:40.648Z,21.80
2022-12-01T11:48:39.616Z,22.60
2022-12-01T11:49:45.517Z,24.00
2022-12-01T11:50:40.614Z,25.30
2022-12-01T11:51:39.588Z,26.50
2022-12-01T11:52:39.568Z,26.20
2022-12-01T11:53:39.565Z,22.50
2022-12-01T11:54:39.584Z,23.60
2022-12-01T11:55:39.572Z,22.50
2022-12-01T11:56:39.528Z,22.40
2022-12-01T11:57:39.531Z,20.80
2022-12-01T11:58:39.571Z,23.00
2022-12-01T11:59:39.505Z,19.50
2022-12-01T12:00:39.510Z,21.30
2022-12-01T12:01:39.478Z,19.80
2022-12-01T12:02:39.513Z,21.80
2022-12-01T12:03:39.498Z,21.00
2022-12-01T12:04:39.438Z,21.40
2022-12-01T12:05:39.428Z,20.80
2022-12-01T12:06:40.568Z,20.40
2022-12-01T12:07:39.445Z,22.00
2022-12-01T12:08:39.466Z,22.60
2022-12-01T12:09:45.792Z,21.00
2022-12-01T12:10:40.418Z,21.80
2022-12-01T12:11:39.364Z,20.90
2022-12-01T12:12:39.371Z,21.20
2022-12-01T12:13:39.373Z,23.20
2022-12-01T12:14:39.338Z,21.90
2022-12-01T12:15:39.349Z,23.20
2022-12-01T12:16:39.328Z,21.00
2022-12-01T12:17:39.329Z,23.40
2022-12-01T12:18:39.282Z,23.70
2022-12-01T12:20:00.361Z,21.70
2022-12-01T12:20:40.295Z,21.20
2022-12-01T12:21:39.255Z,20.30
2022-12-01T12:22:39.262Z,22.80
2022-12-01T12:23:39.227Z,22.40
2022-12-01T12:24:39.217Z,23.10
2022-12-01T12:25:39.211Z,20.80
2022-12-01T12:26:39.227Z,23.10
2022-12-01T12:27:39.185Z,22.20
2022-12-01T12:28:39.173Z,23.20
2022-12-01T12:29:39.185Z,19.90
2022-12-01T12:30:39.200Z,20.90
2022-12-01T12:31:39.139Z,22.90
2022-12-01T12:32:39.132Z,24.50
2022-12-01T12:33:39.122Z,22.60
2022-12-01T12:34:39.143Z,22.70
2022-12-01T12:35:39.116Z,23.40
2022-12-01T12:36:39.088Z,22.10
2022-12-01T12:37:39.089Z,22.60
2022-12-01T12:38:39.087Z,22.20
2022-12-01T12:39:39.057Z,22.90
2022-12-01T12:40:39.075Z,21.20
2022-12-01T12:41:39.026Z,24.90
2022-12-01T12:42:39.031Z,21.90
2022-12-01T12:43:39.059Z,20.90
2022-12-01T12:44:39.001Z,20.50
2022-12-01T12:45:38.987Z,22.60
2022-12-01T12:46:39.075Z,22.50
2022-12-01T12:47:38.966Z,21.50
2022-12-01T12:49:03.583Z,22.40
2022-12-01T12:49:39.962Z,21.40
2022-12-01T12:50:38.941Z,19.10
2022-12-01T12:51:38.940Z,21.20
2022-12-01T12:52:38.980Z,20.60
2022-12-01T12:53:39.010Z,21.00